sensor_id;sensor_type;location;lat;lon;timestamp;pressure;altitude;pressure_sealevel;temperature;humidity
9289;BME280;4683;50.864;12.086;2023-08-08T00:01:27;98904.78;;;13.25;100.00
9289;BME280;4683;50.864;12.086;2023-08-08T00:03:55;98906.41;;;13.26;100.00
9289;BME280;4683;50.864;12.086;2023-08-08T00:06:26;98902.34;;;13.24;100.00
9289;BME280;4683;50.864;12.086;2023-08-08T00:08:54;98907.84;;;13.29;100.00
9289;BME280;4683;50.864;12.086;2023-08-08T00:11:23;98915.19;;;13.27;100.00
9289;BME280;4683;50.864;12.086;2023-08-08T00:13:51;98913.78;;;13.37;100.00
9289;BME280;4683;50.864;12.086;2023-08-08T00:16:19;98914.16;;;13.34;100.00
9289;BME280;4683;50.864;12.086;2023-08-08T00:18:49;98918.66;;;13.27;100.00
9289;BME280;4683;50.864;12.086;2023-08-08T00:21:20;98916.81;;;13.28;100.00
9289;BME280;4683;50.864;12.086;2023-08-08T00:23:48;98917.63;;;13.28;100.00
9289;BME280;4683;50.864;12.086;2023-08-08T00:26:17;98921.44;;;13.19;100.00
9289;BME280;4683;50.864;12.086;2023-08-08T00:28:46;98918.59;;;13.14;100.00
9289;BME280;4683;50.864;12.086;2023-08-08T00:31:14;98923.91;;;13.14;100.00
9289;BME280;4683;50.864;12.086;2023-08-08T00:33:44;98916.13;;;13.12;100.00
9289;BME280;4683;50.864;12.086;2023-08-08T00:36:14;98918.16;;;13.04;100.00
9289;BME280;4683;50.864;12.086;2023-08-08T00:38:42;98916.09;;;12.92;100.00
9289;BME280;4683;50.864;12.086;2023-08-08T00:41:10;98918.13;;;12.97;100.00
9289;BME280;4683;50.864;12.086;2023-08-08T00:43:39;98924.66;;;13.08;100.00
9289;BME280;4683;50.864;12.086;2023-08-08T00:46:07;98914.91;;;13.08;100.00
9289;BME280;4683;50.864;12.086;2023-08-08T00:48:36;98914.06;;;13.08;100.00
9289;BME280;4683;50.864;12.086;2023-08-08T00:51:04;98904.34;;;13.08;100.00
9289;BME280;4683;50.864;12.086;2023-08-08T00:53:34;98910.44;;;13.09;100.00
9289;BME280;4683;50.864;12.086;2023-08-08T00:56:04;98911.47;;;13.14;100.00
9289;BME280;4683;50.864;12.086;2023-08-08T00:58:33;98908.59;;;13.09;100.00
9289;BME280;4683;50.864;12.086;2023-08-08T01:01:01;98915.75;;;13.15;100.00
9289;BME280;4683;50.864;12.086;2023-08-08T01:03:29;98908.81;;;13.14;100.00
9289;BME280;4683;50.864;12.086;2023-08-08T01:06:02;98918.38;;;13.09;100.00
9289;BME280;4683;50.864;12.086;2023-08-08T01:08:42;98917.38;;;13.10;100.00
9289;BME280;4683;50.864;12.086;2023-08-08T01:11:14;98919.78;;;13.11;100.00
9289;BME280;4683;50.864;12.086;2023-08-08T01:13:44;98908.59;;;13.16;100.00
9289;BME280;4683;50.864;12.086;2023-08-08T01:16:14;98904.53;;;13.13;100.00
9289;BME280;4683;50.864;12.086;2023-08-08T01:18:43;98914.06;;;13.08;100.00
9289;BME280;4683;50.864;12.086;2023-08-08T01:21:15;98909.63;;;13.08;100.00
9289;BME280;4683;50.864;12.086;2023-08-08T01:23:52;98913.88;;;13.03;100.00
9289;BME280;4683;50.864;12.086;2023-08-08T01:26:23;98907.16;;;13.07;100.00
9289;BME280;4683;50.864;12.086;2023-08-08T01:28:53;98903.88;;;12.98;100.00
9289;BME280;4683;50.864;12.086;2023-08-08T01:31:22;98899.59;;;12.97;100.00
9289;BME280;4683;50.864;12.086;2023-08-08T01:33:50;98905.09;;;12.95;100.00
9289;BME280;4683;50.864;12.086;2023-08-08T01:36:25;98895.94;;;12.98;100.00
9289;BME280;4683;50.864;12.086;2023-08-08T01:38:59;98890.41;;;12.86;100.00
9289;BME280;4683;50.864;12.086;2023-08-08T01:41:33;98886.31;;;12.77;100.00
9289;BME280;4683;50.864;12.086;2023-08-08T01:44:02;98889.56;;;12.79;100.00
9289;BME280;4683;50.864;12.086;2023-08-08T01:46:31;98895.84;;;12.72;100.00
9289;BME280;4683;50.864;12.086;2023-08-08T01:48:59;98891.16;;;12.67;100.00
9289;BME280;4683;50.864;12.086;2023-08-08T01:51:27;98892.75;;;12.55;100.00
9289;BME280;4683;50.864;12.086;2023-08-08T01:53:56;98892.31;;;12.51;100.00
9289;BME280;4683;50.864;12.086;2023-08-08T01:56:24;98885.19;;;12.45;100.00
9289;BME280;4683;50.864;12.086;2023-08-08T01:58:53;98884.19;;;12.53;100.00
9289;BME280;4683;50.864;12.086;2023-08-08T02:01:21;98886.44;;;12.56;100.00
9289;BME280;4683;50.864;12.086;2023-08-08T02:03:49;98881.56;;;12.59;100.00
9289;BME280;4683;50.864;12.086;2023-08-08T02:06:17;98888.28;;;12.62;100.00
9289;BME280;4683;50.864;12.086;2023-08-08T02:08:46;98887.88;;;12.58;100.00
9289;BME280;4683;50.864;12.086;2023-08-08T02:11:14;98881.78;;;12.64;100.00
9289;BME280;4683;50.864;12.086;2023-08-08T02:13:43;98878.13;;;12.65;100.00
9289;BME280;4683;50.864;12.086;2023-08-08T02:16:12;98886.31;;;12.77;100.00
9289;BME280;4683;50.864;12.086;2023-08-08T02:18:40;98880.19;;;12.70;100.00
9289;BME280;4683;50.864;12.086;2023-08-08T02:21:09;98884.22;;;12.66;100.00
9289;BME280;4683;50.864;12.086;2023-08-08T02:23:37;98889.13;;;12.69;100.00
9289;BME280;4683;50.864;12.086;2023-08-08T02:26:05;98877.53;;;12.70;100.00
9289;BME280;4683;50.864;12.086;2023-08-08T02:28:34;98863.88;;;12.66;100.00
9289;BME280;4683;50.864;12.086;2023-08-08T02:31:02;98873.66;;;12.66;100.00
9289;BME280;4683;50.864;12.086;2023-08-08T02:33:31;98865.06;;;12.57;100.00
9289;BME280;4683;50.864;12.086;2023-08-08T02:35:59;98860.59;;;12.58;100.00
9289;BME280;4683;50.864;12.086;2023-08-08T02:38:28;98862.03;;;12.67;100.00
9289;BME280;4683;50.864;12.086;2023-08-08T02:40:57;98862.47;;;12.70;100.00
9289;BME280;4683;50.864;12.086;2023-08-08T02:43:25;98858.41;;;12.68;100.00
9289;BME280;4683;50.864;12.086;2023-08-08T02:45:53;98858.59;;;12.66;100.00
9289;BME280;4683;50.864;12.086;2023-08-08T02:48:21;98863.47;;;12.63;100.00
9289;BME280;4683;50.864;12.086;2023-08-08T02:50:51;98857.34;;;12.56;100.00
9289;BME280;4683;50.864;12.086;2023-08-08T02:53:19;98847.94;;;12.53;100.00
9289;BME280;4683;50.864;12.086;2023-08-08T02:55:47;98846.38;;;12.59;100.00
9289;BME280;4683;50.864;12.086;2023-08-08T02:58:16;98849.59;;;12.61;100.00
9289;BME280;4683;50.864;12.086;2023-08-08T03:04:53;98856.09;;;12.52;100.00
9289;BME280;4683;50.864;12.086;2023-08-08T03:07:32;98851.44;;;12.67;100.00
9289;BME280;4683;50.864;12.086;2023-08-08T03:10:00;98850.88;;;12.78;100.00
9289;BME280;4683;50.864;12.086;2023-08-08T03:12:28;98855.38;;;12.84;100.00
9289;BME280;4683;50.864;12.086;2023-08-08T03:14:57;98839.09;;;12.87;100.00
9289;BME280;4683;50.864;12.086;2023-08-08T03:17:25;98848.47;;;12.90;100.00
9289;BME280;4683;50.864;12.086;2023-08-08T03:19:53;98844.38;;;12.94;100.00
9289;BME280;4683;50.864;12.086;2023-08-08T03:22:22;98843.56;;;12.93;100.00
9289;BME280;4683;50.864;12.086;2023-08-08T03:24:52;98846.44;;;12.85;100.00
9289;BME280;4683;50.864;12.086;2023-08-08T03:27:21;98845.63;;;12.91;100.00
9289;BME280;4683;50.864;12.086;2023-08-08T03:29:49;98850.50;;;12.88;100.00
9289;BME280;4683;50.864;12.086;2023-08-08T03:32:17;98840.94;;;12.93;100.00
9289;BME280;4683;50.864;12.086;2023-08-08T03:34:46;98844.38;;;12.94;100.00
9289;BME280;4683;50.864;12.086;2023-08-08T03:37:15;98838.28;;;12.93;100.00
9289;BME280;4683;50.864;12.086;2023-08-08T03:39:51;98843.56;;;12.87;100.00
9289;BME280;4683;50.864;12.086;2023-08-08T03:42:19;98850.28;;;12.89;100.00
9289;BME280;4683;50.864;12.086;2023-08-08T03:44:47;98854.59;;;12.90;100.00
9289;BME280;4683;50.864;12.086;2023-08-08T03:47:15;98857.03;;;12.99;100.00
9289;BME280;4683;50.864;12.086;2023-08-08T03:49:43;98872.31;;;13.03;100.00
9289;BME280;4683;50.864;12.086;2023-08-08T03:52:12;98868.84;;;13.03;100.00
9289;BME280;4683;50.864;12.086;2023-08-08T03:54:40;98867.22;;;13.02;100.00
9289;BME280;4683;50.864;12.086;2023-08-08T03:57:10;98863.75;;;13.01;100.00
9289;BME280;4683;50.864;12.086;2023-08-08T03:59:38;98859.47;;;12.93;100.00
9289;BME280;4683;50.864;12.086;2023-08-08T04:02:07;98848.88;;;12.93;100.00
9289;BME280;4683;50.864;12.086;2023-08-08T04:04:35;98850.72;;;12.93;100.00
9289;BME280;4683;50.864;12.086;2023-08-08T04:07:03;98850.53;;;12.94;100.00
9289;BME280;4683;50.864;12.086;2023-08-08T04:09:32;98846.69;;;13.04;100.00
9289;BME280;4683;50.864;12.086;2023-08-08T04:12:00;98845.22;;;13.08;100.00
9289;BME280;4683;50.864;12.086;2023-08-08T04:14:29;98848.91;;;13.07;100.00
9289;BME280;4683;50.864;12.086;2023-08-08T04:16:58;98851.38;;;13.08;100.00
9289;BME280;4683;50.864;12.086;2023-08-08T04:19:26;98844.84;;;13.11;100.00
9289;BME280;4683;50.864;12.086;2023-08-08T04:21:54;98841.97;;;13.12;100.00
9289;BME280;4683;50.864;12.086;2023-08-08T04:24:22;98843.41;;;13.15;100.00
9289;BME280;4683;50.864;12.086;2023-08-08T04:26:51;98845.91;;;13.23;100.00
9289;BME280;4683;50.864;12.086;2023-08-08T04:29:19;98849.16;;;13.25;100.00
9289;BME280;4683;50.864;12.086;2023-08-08T04:31:49;98846.31;;;13.27;100.00
9289;BME280;4683;50.864;12.086;2023-08-08T04:34:17;98835.50;;;13.28;100.00
9289;BME280;4683;50.864;12.086;2023-08-08T04:36:45;98831.63;;;13.24;100.00
9289;BME280;4683;50.864;12.086;2023-08-08T04:39:13;98832.44;;;13.38;100.00
9289;BME280;4683;50.864;12.086;2023-08-08T04:41:41;98840.41;;;13.44;100.00
9289;BME280;4683;50.864;12.086;2023-08-08T04:44:10;98847.53;;;13.44;100.00
9289;BME280;4683;50.864;12.086;2023-08-08T04:46:38;98844.88;;;13.44;100.00
9289;BME280;4683;50.864;12.086;2023-08-08T04:49:08;98842.84;;;13.46;100.00
9289;BME280;4683;50.864;12.086;2023-08-08T04:51:36;98837.13;;;13.56;100.00
9289;BME280;4683;50.864;12.086;2023-08-08T04:54:04;98837.94;;;13.56;100.00
9289;BME280;4683;50.864;12.086;2023-08-08T04:56:32;98843.81;;;13.71;100.00
9289;BME280;4683;50.864;12.086;2023-08-08T04:59:01;98850.56;;;13.74;100.00
9289;BME280;4683;50.864;12.086;2023-08-08T05:01:29;98848.91;;;13.80;100.00
9289;BME280;4683;50.864;12.086;2023-08-08T05:03:57;98839.97;;;13.81;100.00
9289;BME280;4683;50.864;12.086;2023-08-08T05:06:27;98852.59;;;13.85;100.00
9289;BME280;4683;50.864;12.086;2023-08-08T05:08:56;98851.34;;;13.94;100.00
9289;BME280;4683;50.864;12.086;2023-08-08T05:11:24;98854.41;;;13.91;100.00
9289;BME280;4683;50.864;12.086;2023-08-08T05:13:52;98860.75;;;13.84;100.00
9289;BME280;4683;50.864;12.086;2023-08-08T05:16:20;98856.84;;;13.93;100.00
9289;BME280;4683;50.864;12.086;2023-08-08T05:18:49;98861.16;;;13.87;100.00
9289;BME280;4683;50.864;12.086;2023-08-08T05:21:17;98856.44;;;13.89;100.00
9289;BME280;4683;50.864;12.086;2023-08-08T05:23:47;98859.50;;;13.93;100.00
9289;BME280;4683;50.864;12.086;2023-08-08T05:26:15;98854.00;;;13.94;100.00
9289;BME280;4683;50.864;12.086;2023-08-08T05:28:44;98850.72;;;14.06;100.00
9289;BME280;4683;50.864;12.086;2023-08-08T05:31:12;98852.72;;;14.10;100.00
9289;BME280;4683;50.864;12.086;2023-08-08T05:33:40;98860.91;;;14.09;100.00
9289;BME280;4683;50.864;12.086;2023-08-08T05:36:08;98856.38;;;14.16;100.00
9289;BME280;4683;50.864;12.086;2023-08-08T05:38:37;98868.22;;;14.20;100.00
9289;BME280;4683;50.864;12.086;2023-08-08T05:41:07;98857.81;;;14.12;100.00
9289;BME280;4683;50.864;12.086;2023-08-08T05:43:35;98855.78;;;14.14;100.00
9289;BME280;4683;50.864;12.086;2023-08-08T05:46:04;98858.63;;;14.19;100.00
9289;BME280;4683;50.864;12.086;2023-08-08T05:48:32;98861.06;;;14.27;100.00
9289;BME280;4683;50.864;12.086;2023-08-08T05:51:01;98865.28;;;14.48;100.00
9289;BME280;4683;50.864;12.086;2023-08-08T05:53:32;98871.38;;;14.55;100.00
9289;BME280;4683;50.864;12.086;2023-08-08T05:56:00;98867.94;;;14.55;100.00
9289;BME280;4683;50.864;12.086;2023-08-08T05:58:30;98864.19;;;14.69;100.00
9289;BME280;4683;50.864;12.086;2023-08-08T06:00:58;98878.53;;;14.55;100.00
9289;BME280;4683;50.864;12.086;2023-08-08T06:03:26;98869.97;;;14.53;100.00
9289;BME280;4683;50.864;12.086;2023-08-08T06:05:54;98865.88;;;14.43;100.00
9289;BME280;4683;50.864;12.086;2023-08-08T06:08:23;98858.50;;;14.59;100.00
9289;BME280;4683;50.864;12.086;2023-08-08T06:10:51;98849.47;;;14.66;100.00
9289;BME280;4683;50.864;12.086;2023-08-08T06:13:20;98839.41;;;14.82;100.00
9289;BME280;4683;50.864;12.086;2023-08-08T06:15:49;98840.56;;;14.92;100.00
9289;BME280;4683;50.864;12.086;2023-08-08T06:18:18;98844.25;;;14.91;100.00
9289;BME280;4683;50.864;12.086;2023-08-08T06:20:46;98852.22;;;14.91;100.00
9289;BME280;4683;50.864;12.086;2023-08-08T06:23:14;98844.31;;;14.78;100.00
9289;BME280;4683;50.864;12.086;2023-08-08T06:25:42;98849.03;;;14.76;100.00
9289;BME280;4683;50.864;12.086;2023-08-08T06:28:11;98856.44;;;14.61;100.00
9289;BME280;4683;50.864;12.086;2023-08-08T06:30:39;98852.41;;;14.52;100.00
9289;BME280;4683;50.864;12.086;2023-08-08T06:33:08;98854.25;;;14.51;100.00
9289;BME280;4683;50.864;12.086;2023-08-08T06:35:38;98855.25;;;14.43;100.00
9289;BME280;4683;50.864;12.086;2023-08-08T06:38:07;98860.56;;;14.43;100.00
9289;BME280;4683;50.864;12.086;2023-08-08T06:44:42;98833.38;;;14.61;100.00
9289;BME280;4683;50.864;12.086;2023-08-08T06:47:11;98817.47;;;14.93;100.00
9289;BME280;4683;50.864;12.086;2023-08-08T06:49:44;98817.69;;;15.16;100.00
9289;BME280;4683;50.864;12.086;2023-08-08T06:52:16;98828.31;;;15.16;100.00
9289;BME280;4683;50.864;12.086;2023-08-08T06:54:44;98833.19;;;14.94;100.00
9289;BME280;4683;50.864;12.086;2023-08-08T06:57:12;98839.97;;;14.90;100.00
9289;BME280;4683;50.864;12.086;2023-08-08T06:59:41;98840.72;;;14.97;100.00
9289;BME280;4683;50.864;12.086;2023-08-08T07:02:09;98835.75;;;15.08;100.00
9289;BME280;4683;50.864;12.086;2023-08-08T07:04:39;98837.28;;;15.22;100.00
9289;BME280;4683;50.864;12.086;2023-08-08T07:07:07;98844.88;;;15.18;100.00
9289;BME280;4683;50.864;12.086;2023-08-08T07:09:37;98840.88;;;15.34;100.00
9289;BME280;4683;50.864;12.086;2023-08-08T07:12:06;98842.38;;;15.48;100.00
9289;BME280;4683;50.864;12.086;2023-08-08T08:48:39;98876.38;;;17.65;100.00
9289;BME280;4683;50.864;12.086;2023-08-08T08:51:08;98872.34;;;17.74;100.00
9289;BME280;4683;50.864;12.086;2023-08-08T08:53:38;98870.47;;;17.63;100.00
9289;BME280;4683;50.864;12.086;2023-08-08T08:56:10;98870.13;;;17.60;100.00
9289;BME280;4683;50.864;12.086;2023-08-08T08:58:39;98866.41;;;17.61;100.00
9289;BME280;4683;50.864;12.086;2023-08-08T09:01:08;98872.44;;;17.56;100.00
9289;BME280;4683;50.864;12.086;2023-08-08T09:03:41;98867.81;;;17.75;100.00
9289;BME280;4683;50.864;12.086;2023-08-08T09:06:12;98863.84;;;17.66;100.00
9289;BME280;4683;50.864;12.086;2023-08-08T09:08:42;98866.09;;;17.92;100.00
9289;BME280;4683;50.864;12.086;2023-08-08T09:11:14;98869.69;;;18.10;100.00
9289;BME280;4683;50.864;12.086;2023-08-08T09:13:42;98873.47;;;18.25;100.00
9289;BME280;4683;50.864;12.086;2023-08-08T09:16:11;98860.09;;;18.37;100.00
9289;BME280;4683;50.864;12.086;2023-08-08T09:18:43;98856.47;;;18.55;100.00
9289;BME280;4683;50.864;12.086;2023-08-08T09:21:14;98860.41;;;18.52;100.00
9289;BME280;4683;50.864;12.086;2023-08-08T09:23:43;98859.31;;;18.65;100.00
9289;BME280;4683;50.864;12.086;2023-08-08T09:26:13;98854.63;;;18.44;100.00
9289;BME280;4683;50.864;12.086;2023-08-08T09:28:43;98858.22;;;18.49;100.00
9289;BME280;4683;50.864;12.086;2023-08-08T09:31:12;98844.28;;;18.47;100.00
9289;BME280;4683;50.864;12.086;2023-08-08T09:33:40;98853.41;;;18.63;100.00
9289;BME280;4683;50.864;12.086;2023-08-08T09:36:16;98856.38;;;18.38;100.00
9289;BME280;4683;50.864;12.086;2023-08-08T09:38:46;98846.50;;;18.39;100.00
9289;BME280;4683;50.864;12.086;2023-08-08T09:41:19;98848.28;;;18.73;100.00
9289;BME280;4683;50.864;12.086;2023-08-08T09:43:48;98841.72;;;19.10;100.00
9289;BME280;4683;50.864;12.086;2023-08-08T09:46:18;98833.81;;;19.32;100.00
9289;BME280;4683;50.864;12.086;2023-08-08T09:48:46;98838.75;;;19.23;100.00
9289;BME280;4683;50.864;12.086;2023-08-08T09:51:17;98829.34;;;19.37;100.00
9289;BME280;4683;50.864;12.086;2023-08-08T09:53:47;98826.81;;;19.81;100.00
9289;BME280;4683;50.864;12.086;2023-08-08T09:56:16;98825.38;;;19.73;100.00
9289;BME280;4683;50.864;12.086;2023-08-08T09:58:47;98820.19;;;19.67;100.00
9289;BME280;4683;50.864;12.086;2023-08-08T10:01:15;98821.56;;;19.69;100.00
9289;BME280;4683;50.864;12.086;2023-08-08T10:03:45;98813.69;;;20.01;100.00
9289;BME280;4683;50.864;12.086;2023-08-08T10:06:15;98807.53;;;20.23;100.00
9289;BME280;4683;50.864;12.086;2023-08-08T10:08:45;98814.34;;;20.31;100.00
9289;BME280;4683;50.864;12.086;2023-08-08T10:11:13;98815.53;;;20.18;100.00
9289;BME280;4683;50.864;12.086;2023-08-08T10:13:49;98807.28;;;20.24;100.00
9289;BME280;4683;50.864;12.086;2023-08-08T10:16:18;98800.78;;;20.42;100.00
9289;BME280;4683;50.864;12.086;2023-08-08T10:18:55;98804.50;;;20.58;100.00
9289;BME280;4683;50.864;12.086;2023-08-08T10:21:26;98803.97;;;20.39;100.00
9289;BME280;4683;50.864;12.086;2023-08-08T10:24:03;98804.16;;;20.33;100.00
9289;BME280;4683;50.864;12.086;2023-08-08T10:26:31;98805.59;;;20.40;100.00
9289;BME280;4683;50.864;12.086;2023-08-08T10:29:03;98800.19;;;20.35;100.00
9289;BME280;4683;50.864;12.086;2023-08-08T10:31:35;98808.94;;;20.74;100.00
9289;BME280;4683;50.864;12.086;2023-08-08T10:34:05;98806.78;;;20.98;93.50
9289;BME280;4683;50.864;12.086;2023-08-08T10:36:49;98794.06;;;21.21;94.53
9289;BME280;4683;50.864;12.086;2023-08-08T10:39:20;98776.34;;;21.20;94.10
9289;BME280;4683;50.864;12.086;2023-08-08T10:41:50;98784.66;;;20.86;94.69
9289;BME280;4683;50.864;12.086;2023-08-08T10:44:23;98789.00;;;21.24;96.46
9289;BME280;4683;50.864;12.086;2023-08-08T10:46:52;98788.56;;;21.33;97.42
9289;BME280;4683;50.864;12.086;2023-08-08T10:49:22;98779.03;;;21.20;95.33
9289;BME280;4683;50.864;12.086;2023-08-08T10:51:54;98786.28;;;20.60;91.69
9289;BME280;4683;50.864;12.086;2023-08-08T10:54:29;98781.19;;;20.59;91.71
9289;BME280;4683;50.864;12.086;2023-08-08T10:57:00;98771.41;;;20.47;90.06
9289;BME280;4683;50.864;12.086;2023-08-08T10:59:36;98766.88;;;20.80;89.07
9289;BME280;4683;50.864;12.086;2023-08-08T11:02:06;98772.88;;;20.60;85.12
9289;BME280;4683;50.864;12.086;2023-08-08T11:04:35;98756.13;;;20.75;84.67
9289;BME280;4683;50.864;12.086;2023-08-08T11:07:05;98759.97;;;20.84;86.71
9289;BME280;4683;50.864;12.086;2023-08-08T11:09:44;98760.56;;;20.37;85.19
9289;BME280;4683;50.864;12.086;2023-08-08T11:12:19;98775.13;;;20.46;91.22
9289;BME280;4683;50.864;12.086;2023-08-08T11:14:50;98764.25;;;20.53;89.51
9289;BME280;4683;50.864;12.086;2023-08-08T11:17:18;98770.09;;;20.77;89.12
9289;BME280;4683;50.864;12.086;2023-08-08T11:19:47;98762.91;;;21.15;89.16
9289;BME280;4683;50.864;12.086;2023-08-08T11:22:16;98763.66;;;21.42;85.27
9289;BME280;4683;50.864;12.086;2023-08-08T11:24:50;98758.75;;;21.34;86.49
9289;BME280;4683;50.864;12.086;2023-08-08T11:27:18;98750.84;;;21.17;83.34
9289;BME280;4683;50.864;12.086;2023-08-08T11:29:49;98752.09;;;21.37;83.05
9289;BME280;4683;50.864;12.086;2023-08-08T11:32:18;98746.31;;;21.60;83.04
9289;BME280;4683;50.864;12.086;2023-08-08T11:34:47;98745.81;;;21.26;81.08
9289;BME280;4683;50.864;12.086;2023-08-08T11:37:17;98743.38;;;21.62;85.45
9289;BME280;4683;50.864;12.086;2023-08-08T11:39:46;98754.72;;;21.74;83.16
9289;BME280;4683;50.864;12.086;2023-08-08T11:42:15;98739.75;;;21.93;84.43
9289;BME280;4683;50.864;12.086;2023-08-08T11:44:44;98742.88;;;22.22;82.82
9289;BME280;4683;50.864;12.086;2023-08-08T11:47:14;98742.56;;;22.19;84.77
9289;BME280;4683;50.864;12.086;2023-08-08T11:49:43;98733.44;;;22.25;78.44
9289;BME280;4683;50.864;12.086;2023-08-08T11:52:12;98726.88;;;21.95;74.92
9289;BME280;4683;50.864;12.086;2023-08-08T11:54:42;98742.56;;;21.61;79.39
9289;BME280;4683;50.864;12.086;2023-08-08T11:57:10;98743.88;;;21.53;79.57
9289;BME280;4683;50.864;12.086;2023-08-08T11:59:39;98746.28;;;21.18;80.38
9289;BME280;4683;50.864;12.086;2023-08-08T12:02:10;98741.53;;;20.93;78.82
9289;BME280;4683;50.864;12.086;2023-08-08T12:04:43;98752.38;;;21.03;82.20
9289;BME280;4683;50.864;12.086;2023-08-08T12:07:13;98744.56;;;21.01;83.11
9289;BME280;4683;50.864;12.086;2023-08-08T12:09:43;98744.31;;;21.35;80.42
9289;BME280;4683;50.864;12.086;2023-08-08T12:12:11;98750.03;;;21.49;82.33
9289;BME280;4683;50.864;12.086;2023-08-08T12:14:44;98741.63;;;21.03;82.13
9289;BME280;4683;50.864;12.086;2023-08-08T12:17:16;98745.97;;;21.09;83.98
9289;BME280;4683;50.864;12.086;2023-08-08T12:19:46;98743.31;;;21.14;81.07
9289;BME280;4683;50.864;12.086;2023-08-08T12:22:15;98746.78;;;21.10;83.35
9289;BME280;4683;50.864;12.086;2023-08-08T12:24:49;98745.59;;;20.95;79.98
9289;BME280;4683;50.864;12.086;2023-08-08T12:27:18;98740.56;;;20.72;81.45
9289;BME280;4683;50.864;12.086;2023-08-08T12:29:46;98740.09;;;21.12;83.45
9289;BME280;4683;50.864;12.086;2023-08-08T12:32:15;98730.31;;;21.33;85.80
9289;BME280;4683;50.864;12.086;2023-08-08T12:34:43;98743.69;;;21.28;85.81
9289;BME280;4683;50.864;12.086;2023-08-08T12:37:16;98742.47;;;21.09;84.88
9289;BME280;4683;50.864;12.086;2023-08-08T12:39:46;98745.25;;;21.24;84.91
9289;BME280;4683;50.864;12.086;2023-08-08T12:42:15;98741.16;;;21.48;85.25
9289;BME280;4683;50.864;12.086;2023-08-08T12:44:44;98740.13;;;21.17;81.47
9289;BME280;4683;50.864;12.086;2023-08-08T12:47:14;98741.91;;;21.07;82.96
9289;BME280;4683;50.864;12.086;2023-08-08T12:49:42;98742.44;;;21.03;82.31
9289;BME280;4683;50.864;12.086;2023-08-08T12:52:11;98744.00;;;20.99;80.77
9289;BME280;4683;50.864;12.086;2023-08-08T12:54:39;98750.00;;;21.12;81.37
9289;BME280;4683;50.864;12.086;2023-08-08T12:57:09;98734.53;;;21.24;79.78
9289;BME280;4683;50.864;12.086;2023-08-08T12:59:40;98733.44;;;21.25;80.43
9289;BME280;4683;50.864;12.086;2023-08-08T13:02:10;98737.84;;;21.31;81.76
9289;BME280;4683;50.864;12.086;2023-08-08T13:04:43;98738.31;;;21.28;77.89
9289;BME280;4683;50.864;12.086;2023-08-08T13:07:13;98731.34;;;21.27;80.09
9289;BME280;4683;50.864;12.086;2023-08-08T13:09:46;98745.28;;;21.29;82.01
9289;BME280;4683;50.864;12.086;2023-08-08T13:12:15;98734.25;;;20.88;83.81
9289;BME280;4683;50.864;12.086;2023-08-08T13:14:44;98749.41;;;20.72;85.60
9289;BME280;4683;50.864;12.086;2023-08-08T13:17:12;98742.59;;;20.60;87.07
9289;BME280;4683;50.864;12.086;2023-08-08T13:19:45;98750.13;;;20.63;89.91
9289;BME280;4683;50.864;12.086;2023-08-08T13:22:17;98754.00;;;20.77;84.46
9289;BME280;4683;50.864;12.086;2023-08-08T13:24:45;98747.84;;;21.09;84.31
9289;BME280;4683;50.864;12.086;2023-08-08T13:27:16;98747.31;;;21.12;82.03
9289;BME280;4683;50.864;12.086;2023-08-08T13:29:45;98747.28;;;21.07;84.64
9289;BME280;4683;50.864;12.086;2023-08-08T13:32:13;98748.91;;;21.08;83.52
9289;BME280;4683;50.864;12.086;2023-08-08T13:34:41;98756.88;;;21.02;84.05
9289;BME280;4683;50.864;12.086;2023-08-08T13:37:10;98747.56;;;21.10;85.19
9289;BME280;4683;50.864;12.086;2023-08-08T13:39:38;98755.97;;;21.19;86.05
9289;BME280;4683;50.864;12.086;2023-08-08T13:42:08;98759.84;;;21.33;86.33
9289;BME280;4683;50.864;12.086;2023-08-08T13:44:37;98771.66;;;21.32;84.57
9289;BME280;4683;50.864;12.086;2023-08-08T13:47:06;98757.03;;;21.18;84.27
9289;BME280;4683;50.864;12.086;2023-08-08T13:49:35;98767.97;;;20.79;85.21
9289;BME280;4683;50.864;12.086;2023-08-08T13:52:05;98770.22;;;20.92;88.54
9289;BME280;4683;50.864;12.086;2023-08-08T13:54:33;98768.97;;;21.00;88.73
9289;BME280;4683;50.864;12.086;2023-08-08T13:57:02;98772.31;;;20.85;90.14
9289;BME280;4683;50.864;12.086;2023-08-08T13:59:31;98765.94;;;20.91;91.65
9289;BME280;4683;50.864;12.086;2023-08-08T14:02:03;98761.31;;;20.55;91.20
9289;BME280;4683;50.864;12.086;2023-08-08T14:04:33;98763.72;;;20.56;92.22
9289;BME280;4683;50.864;12.086;2023-08-08T14:07:03;98758.66;;;20.60;93.22
9289;BME280;4683;50.864;12.086;2023-08-08T14:09:34;98770.59;;;20.74;93.72
9289;BME280;4683;50.864;12.086;2023-08-08T14:12:03;98769.69;;;20.90;93.84
9289;BME280;4683;50.864;12.086;2023-08-08T14:14:31;98774.44;;;20.83;96.22
9289;BME280;4683;50.864;12.086;2023-08-08T14:17:00;98781.94;;;20.81;94.35
9289;BME280;4683;50.864;12.086;2023-08-08T14:19:31;98773.94;;;20.59;95.78
9289;BME280;4683;50.864;12.086;2023-08-08T14:22:00;98793.72;;;20.31;97.01
9289;BME280;4683;50.864;12.086;2023-08-08T14:24:28;98771.53;;;20.36;96.28
9289;BME280;4683;50.864;12.086;2023-08-08T14:26:57;98786.19;;;20.50;94.98
9289;BME280;4683;50.864;12.086;2023-08-08T14:29:26;98791.03;;;20.53;94.95
9289;BME280;4683;50.864;12.086;2023-08-08T14:31:54;98794.22;;;20.28;93.95
9289;BME280;4683;50.864;12.086;2023-08-08T14:34:30;98792.47;;;20.17;96.86
9289;BME280;4683;50.864;12.086;2023-08-08T14:37:00;98795.72;;;20.19;98.66
9289;BME280;4683;50.864;12.086;2023-08-08T14:39:28;98801.69;;;20.26;100.00
9289;BME280;4683;50.864;12.086;2023-08-08T14:41:58;98821.41;;;19.98;100.00
9289;BME280;4683;50.864;12.086;2023-08-08T14:44:26;98830.69;;;19.57;100.00
9289;BME280;4683;50.864;12.086;2023-08-08T14:46:57;98831.03;;;19.10;100.00
9289;BME280;4683;50.864;12.086;2023-08-08T14:49:25;98837.88;;;18.48;100.00
9289;BME280;4683;50.864;12.086;2023-08-08T14:51:55;98854.56;;;18.27;100.00
9289;BME280;4683;50.864;12.086;2023-08-08T14:54:23;98853.34;;;17.94;100.00
9289;BME280;4683;50.864;12.086;2023-08-08T14:56:52;98852.28;;;17.72;100.00